createdAt,value
2023-03-03T00:01:00.200Z,102016.22
2023-03-03T00:03:29.824Z,102032.88
2023-03-03T00:05:59.265Z,102029.97
2023-03-03T00:08:29.231Z,102025.66
2023-03-03T00:10:58.640Z,102029.97
2023-03-03T00:13:33.271Z,102019.13
2023-03-03T00:16:16.790Z,102030.16
2023-03-03T00:18:47.983Z,102031.22
2023-03-03T00:21:36.267Z,102030.47
2023-03-03T00:24:18.724Z,102015.47
2023-03-03T00:26:49.827Z,102030.53
2023-03-03T00:29:31.514Z,102027.63
2023-03-03T00:32:15.792Z,102030.28
2023-03-03T00:34:45.899Z,102035.34
2023-03-03T00:37:28.322Z,102034.31
2023-03-03T00:40:04.144Z,102041.03
2023-03-03T00:42:37.093Z,102040.47
2023-03-03T00:45:21.909Z,102033.94
2023-03-03T00:47:51.379Z,102026.34
2023-03-03T00:50:29.578Z,102026.34
2023-03-03T00:53:06.086Z,102025.84
2023-03-03T00:55:37.078Z,102031.41
2023-03-03T00:58:07.326Z,102030.53
2023-03-03T01:00:40.296Z,102030.84
2023-03-03T01:03:11.333Z,102019.50
2023-03-03T01:05:41.171Z,102028.56
2023-03-03T01:08:10.692Z,102025.84
2023-03-03T01:10:42.951Z,102026.75
2023-03-03T01:13:13.029Z,102022.81
2023-03-03T01:15:45.171Z,102022.81
2023-03-03T01:18:17.407Z,102019.34
2023-03-03T01:20:46.776Z,102011.16
2023-03-03T01:23:16.541Z,102011.94
2023-03-03T01:25:46.003Z,102005.13
2023-03-03T01:28:15.463Z,102005.88
2023-03-03T01:30:47.508Z,102005.09
2023-03-03T01:33:16.932Z,102006.38
2023-03-03T01:35:47.255Z,102000.59
2023-03-03T01:38:16.833Z,102007.13
2023-03-03T01:40:46.262Z,102006.25
2023-03-03T01:43:17.726Z,102013.28
2023-03-03T01:46:28.341Z,102008.41
2023-03-03T01:49:03.324Z,101999.66
2023-03-03T01:51:35.533Z,102003.50
2023-03-03T01:54:07.238Z,102009.28
2023-03-03T01:56:36.620Z,101995.78
2023-03-03T01:59:09.437Z,102001.56
2023-03-03T02:01:41.837Z,101995.06
2023-03-03T02:04:11.668Z,102003.34
2023-03-03T02:06:44.640Z,102001.56
2023-03-03T02:09:18.122Z,102007.72
2023-03-03T02:11:48.604Z,101999.81
2023-03-03T02:14:17.995Z,102014.22
2023-03-03T02:16:50.067Z,102010.25
2023-03-03T02:19:25.258Z,102000.13
2023-03-03T02:21:55.087Z,102001.75
2023-03-03T02:24:28.707Z,102001.56
2023-03-03T02:27:00.945Z,102000.50
2023-03-03T02:29:30.810Z,102001.22
2023-03-03T02:32:00.456Z,101994.00
2023-03-03T02:34:30.027Z,101994.41
2023-03-03T02:36:59.474Z,101997.13
2023-03-03T02:39:30.642Z,102008.03
2023-03-03T02:42:09.033Z,102009.09
2023-03-03T02:44:38.734Z,102006.22
2023-03-03T02:47:08.297Z,102008.00
2023-03-03T02:49:39.665Z,102005.69
2023-03-03T02:52:11.656Z,102007.63
2023-03-03T02:54:41.233Z,102015.75
2023-03-03T02:57:13.764Z,102025.34
2023-03-03T02:59:43.151Z,102017.41
2023-03-03T03:02:12.628Z,102019.56
2023-03-03T03:04:42.208Z,102028.59
2023-03-03T03:07:11.828Z,102033.09
2023-03-03T03:09:41.224Z,102033.88
2023-03-03T03:12:13.266Z,102045.44
2023-03-03T03:14:42.645Z,102043.63
2023-03-03T03:17:12.886Z,102049.44
2023-03-03T03:19:42.469Z,102052.84
2023-03-03T03:22:11.938Z,102052.31
2023-03-03T03:24:41.383Z,102048.34
2023-03-03T03:27:13.557Z,102049.81
2023-03-03T03:29:43.081Z,102042.06
2023-03-03T03:32:12.851Z,102044.38
2023-03-03T03:34:42.332Z,102042.75
2023-03-03T03:37:11.974Z,102036.44
2023-03-03T03:39:41.740Z,102043.28
2023-03-03T03:42:14.226Z,102054.97
2023-03-03T03:44:44.060Z,102051.91
2023-03-03T03:47:13.595Z,102046.88
2023-03-03T03:49:43.162Z,102041.81
2023-03-03T03:52:12.576Z,102049.22
2023-03-03T03:54:41.988Z,102037.53
2023-03-03T03:57:14.343Z,102043.69
2023-03-03T03:59:43.754Z,102036.44
2023-03-03T04:02:13.268Z,102039.81
2023-03-03T04:04:42.718Z,102041.66
2023-03-03T04:07:12.222Z,102039.69
2023-03-03T04:09:41.644Z,102026.34
2023-03-03T04:12:11.814Z,102026.31
2023-03-03T04:14:43.822Z,102031.75
2023-03-03T04:17:19.065Z,102030.28
2023-03-03T04:19:48.527Z,102031.69
2023-03-03T04:22:17.948Z,102031.38
2023-03-03T04:24:48.717Z,102039.16
2023-03-03T04:27:18.350Z,102037.16
2023-03-03T04:29:50.488Z,102035.91
2023-03-03T04:32:20.460Z,102045.84
2023-03-03T04:34:58.722Z,102039.69
2023-03-03T04:37:37.368Z,102032.97
2023-03-03T04:40:07.767Z,102020.56
2023-03-03T04:42:37.363Z,102031.75
2023-03-03T04:45:10.682Z,102034.47
2023-03-03T04:47:40.118Z,102031.75
2023-03-03T04:50:11.543Z,102032.47
2023-03-03T04:52:41.438Z,102046.94
2023-03-03T04:55:12.695Z,102048.56
2023-03-03T04:57:42.065Z,102046.88
2023-03-03T05:00:16.220Z,102049.22
2023-03-03T05:02:45.709Z,102051.22
2023-03-03T05:05:15.084Z,102055.59
2023-03-03T05:07:44.583Z,102059.22
2023-03-03T05:10:14.898Z,102056.66
2023-03-03T05:12:44.367Z,102048.66
2023-03-03T05:15:16.421Z,102048.84
2023-03-03T05:17:45.859Z,102049.06
2023-03-03T05:20:16.103Z,102051.06
2023-03-03T05:22:45.499Z,102049.38
2023-03-03T05:25:15.212Z,102046.84
2023-03-03T05:27:44.653Z,102043.63
2023-03-03T05:30:17.378Z,102052.31
2023-03-03T05:32:46.915Z,102043.84
2023-03-03T05:35:16.305Z,102051.97
2023-03-03T05:37:47.752Z,102053.97
2023-03-03T05:40:17.820Z,102061.34
2023-03-03T05:42:47.346Z,102060.63
2023-03-03T05:45:20.606Z,102059.91
2023-03-03T05:47:50.496Z,102055.19
2023-03-03T05:50:20.887Z,102055.19
2023-03-03T05:52:50.951Z,102061.06
2023-03-03T05:55:23.470Z,102057.16
2023-03-03T05:57:52.916Z,102048.47
2023-03-03T06:00:25.970Z,102056.28
2023-03-03T06:02:55.446Z,102051.88
2023-03-03T06:05:25.132Z,102046.03
2023-03-03T06:07:54.597Z,102047.88
2023-03-03T06:10:24.011Z,102039.44
2023-03-03T06:12:55.126Z,102051.88
2023-03-03T06:15:27.316Z,102059.38
2023-03-03T06:17:56.745Z,102077.38
2023-03-03T06:20:26.179Z,102095.69
2023-03-03T06:22:55.671Z,102099.88
2023-03-03T06:25:25.197Z,102113.06
2023-03-03T06:27:54.681Z,102115.84
2023-03-03T06:30:28.689Z,102136.09
2023-03-03T06:32:58.199Z,102142.25
2023-03-03T06:35:27.729Z,102148.50
2023-03-03T06:37:57.177Z,102144.03
2023-03-03T06:40:26.624Z,102158.97
2023-03-03T06:42:56.112Z,102141.41
2023-03-03T06:45:28.279Z,102148.47
2023-03-03T06:47:58.024Z,102138.41
2023-03-03T06:50:27.464Z,102139.66
2023-03-03T06:53:05.126Z,102139.97
2023-03-03T06:55:35.059Z,102145.94
2023-03-03T06:58:04.941Z,102134.53
2023-03-03T07:00:37.822Z,102128.44
2023-03-03T07:03:11.645Z,102132.94
2023-03-03T07:05:41.107Z,102131.66
2023-03-03T07:08:16.285Z,102129.19
2023-03-03T07:10:46.348Z,102138.53
2023-03-03T07:13:26.406Z,102144.75
2023-03-03T07:16:00.963Z,102142.47
2023-03-03T07:18:38.248Z,102141.31
2023-03-03T07:21:17.579Z,102146.69
2023-03-03T07:23:48.505Z,102143.69
2023-03-03T07:26:19.677Z,102142.84
2023-03-03T07:28:55.962Z,102150.47
2023-03-03T07:31:33.115Z,102151.50
2023-03-03T07:34:03.650Z,102158.59
2023-03-03T07:36:34.819Z,102164.59
2023-03-03T07:39:06.483Z,102164.22
2023-03-03T07:41:37.901Z,102165.28
2023-03-03T07:44:08.683Z,102160.22
2023-03-03T07:46:44.873Z,102153.16
2023-03-03T07:49:25.148Z,102154.06
2023-03-03T07:51:57.513Z,102158.75
2023-03-03T07:54:33.537Z,102159.25
2023-03-03T07:57:08.670Z,102150.38
2023-03-03T07:59:40.327Z,102153.03
2023-03-03T08:02:28.515Z,102153.25
2023-03-03T08:04:58.119Z,102149.44
2023-03-03T08:07:27.608Z,102146.00
2023-03-03T08:10:00.597Z,102135.47
2023-03-03T08:12:47.832Z,102127.13
2023-03-03T08:15:24.439Z,102131.13
2023-03-03T08:17:57.972Z,102133.97
2023-03-03T08:20:47.068Z,102125.97
2023-03-03T08:23:18.191Z,102120.59
2023-03-03T08:25:48.071Z,102113.38
2023-03-03T08:28:17.677Z,102118.78
2023-03-03T08:30:47.567Z,102112.72
2023-03-03T08:33:20.786Z,102109.13
2023-03-03T08:35:50.944Z,102097.50
2023-03-03T08:38:22.670Z,102102.56
2023-03-03T08:40:53.222Z,102094.03
2023-03-03T08:43:24.751Z,102079.91
2023-03-03T08:45:55.866Z,102066.47
2023-03-03T08:48:28.247Z,102066.13
2023-03-03T08:50:57.940Z,102074.19
2023-03-03T08:53:29.231Z,102054.06
2023-03-03T08:55:58.791Z,102048.84
2023-03-03T08:58:35.052Z,102046.47
2023-03-03T09:01:07.566Z,102050.78
2023-03-03T09:03:39.545Z,102051.13
2023-03-03T09:06:09.167Z,102047.97
2023-03-03T09:08:39.044Z,102042.66
2023-03-03T09:11:13.490Z,102021.50
2023-03-03T09:13:43.082Z,102019.94
2023-03-03T09:16:16.327Z,101996.91
2023-03-03T09:18:48.555Z,101995.69
2023-03-03T09:21:24.326Z,101975.50
2023-03-03T09:23:58.598Z,101972.03
2023-03-03T09:26:31.401Z,101968.75
2023-03-03T09:29:09.196Z,101977.25
2023-03-03T09:31:42.298Z,101968.81
2023-03-03T09:34:30.045Z,101961.78
2023-03-03T09:37:00.247Z,101953.34
2023-03-03T09:39:33.005Z,101965.88
2023-03-03T09:42:18.745Z,101952.81
2023-03-03T09:45:06.113Z,101956.44
2023-03-03T09:47:43.722Z,101950.03
2023-03-03T09:50:24.822Z,101947.81
2023-03-03T09:53:04.017Z,101951.50
2023-03-03T09:55:44.137Z,101944.13
2023-03-03T09:58:27.543Z,101932.59
2023-03-03T10:01:02.643Z,101937.38
2023-03-03T10:04:09.392Z,101926.94
2023-03-03T10:06:43.987Z,101925.75
2023-03-03T10:09:44.080Z,101919.06
2023-03-03T10:12:19.657Z,101922.69
2023-03-03T10:14:59.472Z,101925.34
2023-03-03T10:17:37.121Z,101927.09
2023-03-03T10:20:19.420Z,101925.19
2023-03-03T10:22:55.974Z,101923.47
2023-03-03T10:25:32.326Z,101926.97
2023-03-03T10:28:30.377Z,101930.28
2023-03-03T10:31:12.150Z,101929.72
2023-03-03T10:33:50.396Z,101941.09
2023-03-03T10:36:30.963Z,101953.66
2023-03-03T10:39:36.525Z,101965.22
2023-03-03T10:42:21.289Z,101991.06
2023-03-03T10:45:07.765Z,102023.66
2023-03-03T10:47:49.700Z,102054.31
2023-03-03T10:50:22.220Z,102066.63
2023-03-03T10:52:56.124Z,102079.03
2023-03-03T10:55:39.771Z,102087.44
2023-03-03T10:58:22.989Z,102086.38
2023-03-03T11:00:55.571Z,102094.31
2023-03-03T11:03:41.861Z,102100.28
2023-03-03T11:06:14.975Z,102096.56
2023-03-03T11:08:47.558Z,102103.44
2023-03-03T11:11:23.187Z,102091.97
2023-03-03T11:13:57.763Z,102095.81
2023-03-03T11:16:47.744Z,102100.81
2023-03-03T11:19:41.347Z,102102.72
2023-03-03T11:22:21.393Z,102103.06
2023-03-03T11:25:01.407Z,102108.84
2023-03-03T11:27:58.561Z,102105.41
2023-03-03T11:30:37.394Z,102095.84
2023-03-03T11:33:10.157Z,102104.22
2023-03-03T11:35:45.828Z,102117.13
2023-03-03T11:38:30.175Z,102110.56
2023-03-03T11:41:02.576Z,102102.50
2023-03-03T11:43:37.889Z,102112.81
2023-03-03T11:46:10.459Z,102107.13
2023-03-03T11:48:44.658Z,102114.13
2023-03-03T11:51:17.695Z,102102.66
2023-03-03T11:53:57.404Z,102105.50
2023-03-03T11:56:30.840Z,102094.88
2023-03-03T11:59:10.301Z,102104.03
2023-03-03T12:01:44.904Z,102090.72
2023-03-03T12:04:16.463Z,102096.69
2023-03-03T12:06:58.699Z,102089.50
2023-03-03T12:09:39.485Z,102094.13
2023-03-03T12:12:10.623Z,102099.69
2023-03-03T12:14:56.588Z,102096.84
2023-03-03T12:17:51.966Z,102101.59
2023-03-03T12:20:26.088Z,102090.19
2023-03-03T12:23:07.096Z,102076.50
2023-03-03T12:25:39.771Z,102082.63
2023-03-03T12:28:13.014Z,102085.06
2023-03-03T12:31:20.607Z,102095.47
2023-03-03T12:33:58.115Z,102102.81
2023-03-03T12:37:05.205Z,102113.13
2023-03-03T12:39:44.077Z,102117.31
2023-03-03T12:42:19.831Z,102128.88
2023-03-03T12:44:54.713Z,102129.88
2023-03-03T12:47:28.276Z,102137.38
2023-03-03T12:50:09.107Z,102133.72
2023-03-03T12:52:47.806Z,102135.22
2023-03-03T12:55:25.073Z,102137.28
2023-03-03T12:58:01.588Z,102146.00
2023-03-03T13:00:35.776Z,102141.19
2023-03-03T13:03:12.452Z,102145.06
2023-03-03T13:05:54.828Z,102145.66
2023-03-03T13:08:59.629Z,102142.03
2023-03-03T13:11:42.890Z,102139.28
2023-03-03T13:14:23.217Z,102141.84
2023-03-03T13:17:07.273Z,102136.28
2023-03-03T13:19:44.062Z,102147.66
2023-03-03T13:22:20.233Z,102146.28
2023-03-03T13:24:58.824Z,102140.41
2023-03-03T13:27:30.488Z,102152.56
2023-03-03T13:30:03.698Z,102135.25
2023-03-03T13:32:39.358Z,102140.94
2023-03-03T13:35:12.548Z,102146.59
2023-03-03T13:37:46.186Z,102132.16
2023-03-03T13:40:20.029Z,102144.72
2023-03-03T13:42:52.047Z,102137.19
2023-03-03T13:45:25.668Z,102148.38
2023-03-03T13:48:03.011Z,102146.88
2023-03-03T13:50:36.572Z,102156.03
2023-03-03T13:53:26.084Z,102163.53
2023-03-03T13:56:01.633Z,102164.56
2023-03-03T13:58:38.445Z,102173.13
2023-03-03T14:01:15.159Z,102179.41
2023-03-03T14:04:03.272Z,102168.28
2023-03-03T14:06:33.173Z,102171.22
2023-03-03T14:09:35.347Z,102174.84
2023-03-03T14:12:15.560Z,102180.69
2023-03-03T14:14:50.868Z,102176.13
2023-03-03T14:17:28.813Z,102169.63
2023-03-03T14:20:03.746Z,102186.50
2023-03-03T14:22:40.290Z,102171.84
2023-03-03T14:25:14.819Z,102176.19
2023-03-03T14:27:57.420Z,102167.91
2023-03-03T14:30:40.953Z,102170.47
2023-03-03T14:33:27.069Z,102172.63
2023-03-03T14:36:16.000Z,102158.75
2023-03-03T14:38:51.754Z,102161.56
2023-03-03T14:41:39.310Z,102155.28
2023-03-03T14:44:24.907Z,102142.25
2023-03-03T14:47:06.024Z,102142.09
2023-03-03T14:49:37.897Z,102126.28
2023-03-03T14:52:21.792Z,102132.66
2023-03-03T14:54:53.058Z,102122.19
2023-03-03T14:57:31.288Z,102136.69
2023-03-03T15:00:06.872Z,102119.88
2023-03-03T15:02:40.856Z,102116.00
2023-03-03T15:05:22.482Z,102112.41
2023-03-03T15:07:56.710Z,102107.78
2023-03-03T15:10:31.529Z,102109.88
2023-03-03T15:13:29.235Z,102098.59
2023-03-03T15:16:06.854Z,102098.34
2023-03-03T15:18:36.323Z,102093.38
2023-03-03T15:21:08.214Z,102097.28
2023-03-03T15:23:46.114Z,102089.34
2023-03-03T15:26:19.269Z,102087.22
2023-03-03T15:28:59.345Z,102093.63
2023-03-03T15:31:37.136Z,102082.69
2023-03-03T15:34:24.983Z,102080.22
2023-03-03T15:36:57.321Z,102082.69
2023-03-03T15:39:31.984Z,102082.38
2023-03-03T15:42:07.156Z,102072.53
2023-03-03T15:44:50.862Z,102079.91
2023-03-03T15:47:34.434Z,102061.91
2023-03-03T15:50:15.095Z,102059.06
2023-03-03T15:52:53.118Z,102060.84
2023-03-03T15:55:31.139Z,102061.34
2023-03-03T15:58:14.232Z,102065.56
2023-03-03T16:00:59.474Z,102061.34
2023-03-03T16:03:32.173Z,102063.25
2023-03-03T16:06:06.089Z,102054.97
2023-03-03T16:08:46.189Z,102057.41
2023-03-03T16:11:18.748Z,102052.63
2023-03-03T16:14:11.050Z,102049.22
2023-03-03T16:16:48.700Z,102053.41
2023-03-03T16:19:38.726Z,102044.97
2023-03-03T16:22:18.758Z,102037.31
2023-03-03T16:24:59.869Z,102034.50
2023-03-03T16:27:32.931Z,102029.25
2023-03-03T16:30:25.996Z,102036.78
2023-03-03T16:33:09.100Z,102018.91
2023-03-03T16:35:42.171Z,102030.63
2023-03-03T16:38:15.851Z,102037.38
2023-03-03T16:40:48.452Z,102029.31
2023-03-03T16:43:24.476Z,102028.28
2023-03-03T16:45:54.604Z,102030.56
2023-03-03T16:48:30.928Z,102041.69
2023-03-03T16:51:12.148Z,102037.34
2023-03-03T16:53:57.384Z,102040.97
2023-03-03T16:56:31.915Z,102033.94
2023-03-03T16:59:21.488Z,102037.88
2023-03-03T17:01:54.292Z,102040.41
2023-03-03T17:04:37.774Z,102028.56
2023-03-03T17:07:16.320Z,102032.50
2023-03-03T17:10:19.159Z,102026.91
2023-03-03T17:13:23.134Z,102018.97
2023-03-03T17:16:08.543Z,102011.16
2023-03-03T17:18:50.551Z,102011.16
2023-03-03T17:21:31.146Z,102010.25
2023-03-03T17:24:08.123Z,102006.69
2023-03-03T17:26:56.230Z,102014.69
2023-03-03T17:29:40.086Z,102000.25
2023-03-03T17:32:19.382Z,102009.59
2023-03-03T17:34:56.202Z,102002.69
2023-03-03T17:37:37.350Z,102000.00
2023-03-03T17:40:18.683Z,101995.66
2023-03-03T17:42:53.577Z,101992.03
2023-03-03T17:45:24.013Z,101989.50
2023-03-03T17:48:15.027Z,101988.72
2023-03-03T17:51:10.717Z,101977.81
2023-03-03T17:53:55.352Z,101986.06
2023-03-03T17:56:26.636Z,101978.53
2023-03-03T17:59:12.107Z,101983.63
2023-03-03T18:01:53.754Z,101976.88
2023-03-03T18:04:42.764Z,101975.09
2023-03-03T18:07:42.800Z,101971.78
2023-03-03T18:10:47.920Z,101976.88
2023-03-03T18:13:30.716Z,101971.78
2023-03-03T18:16:12.336Z,101970.16
2023-03-03T18:19:02.801Z,101968.63
2023-03-03T18:21:35.421Z,101976.13
2023-03-03T18:24:29.172Z,101966.81
2023-03-03T18:27:16.790Z,101965.66
2023-03-03T18:30:28.813Z,101976.47
2023-03-03T18:33:15.074Z,101969.03
2023-03-03T18:35:46.196Z,101956.69
2023-03-03T18:38:41.711Z,101945.00
2023-03-03T18:41:13.019Z,101944.75
2023-03-03T18:44:04.662Z,101941.19
2023-03-03T18:46:52.231Z,101936.53
2023-03-03T18:49:21.984Z,101938.78
2023-03-03T18:51:53.516Z,101930.13
2023-03-03T18:54:39.847Z,101937.31
2023-03-03T18:57:18.076Z,101932.22
2023-03-03T19:00:15.827Z,101932.06
2023-03-03T19:02:54.749Z,101932.53
2023-03-03T19:05:28.738Z,101916.06
2023-03-03T19:08:02.867Z,101925.22
2023-03-03T19:10:59.086Z,101916.06
2023-03-03T19:13:46.921Z,101906.16
2023-03-03T19:16:38.463Z,101912.19
2023-03-03T19:19:14.274Z,101907.84
2023-03-03T19:21:44.904Z,101895.44
2023-03-03T19:24:30.805Z,101902.53
2023-03-03T19:27:17.708Z,101889.50
2023-03-03T19:30:10.475Z,101893.72
2023-03-03T19:33:06.214Z,101898.81
2023-03-03T19:35:42.100Z,101892.94
2023-03-03T19:38:23.169Z,101892.53
2023-03-03T19:41:00.671Z,101898.84
2023-03-03T19:43:38.130Z,101903.03
2023-03-03T19:46:29.990Z,101890.91
2023-03-03T19:49:08.763Z,101883.91
2023-03-03T19:51:43.605Z,101887.75
2023-03-03T19:54:21.696Z,101886.13
2023-03-03T19:56:53.168Z,101880.88
2023-03-03T19:59:29.706Z,101879.34
2023-03-03T20:02:30.400Z,101883.22
2023-03-03T20:05:07.238Z,101876.63
2023-03-03T20:07:42.913Z,101874.81
2023-03-03T20:10:28.557Z,101866.44
2023-03-03T20:13:05.482Z,101865.81
2023-03-03T20:15:44.578Z,101862.34
2023-03-03T20:18:58.809Z,101859.34
2023-03-03T20:21:43.913Z,101854.09
2023-03-03T20:24:27.215Z,101847.31
2023-03-03T20:27:00.561Z,101835.78
2023-03-03T20:29:54.374Z,101840.13
2023-03-03T20:32:32.001Z,101833.34
2023-03-03T20:35:09.044Z,101831.84
2023-03-03T20:37:48.139Z,101831.22
2023-03-03T20:40:27.667Z,101828.81
2023-03-03T20:43:04.992Z,101832.41
2023-03-03T20:45:44.064Z,101827.56
2023-03-03T20:48:23.063Z,101819.16
2023-03-03T20:50:56.969Z,101819.69
2023-03-03T20:53:35.280Z,101815.66
2023-03-03T20:56:09.550Z,101813.09
2023-03-03T20:58:49.320Z,101809.78
2023-03-03T21:01:24.229Z,101819.22
2023-03-03T21:03:56.284Z,101812.13
2023-03-03T21:06:41.484Z,101817.63
2023-03-03T21:09:25.249Z,101818.78
2023-03-03T21:11:55.275Z,101816.53
2023-03-03T21:14:26.183Z,101813.47
2023-03-03T21:16:57.425Z,101808.97
2023-03-03T21:19:29.566Z,101816.16
2023-03-03T21:22:01.986Z,101811.97
2023-03-03T21:24:54.370Z,101802.63
2023-03-03T21:27:28.280Z,101802.78
2023-03-03T21:30:13.038Z,101793.47
2023-03-03T21:32:44.959Z,101783.13
2023-03-03T21:35:16.061Z,101780.56
2023-03-03T21:37:48.057Z,101776.97
2023-03-03T21:40:23.488Z,101769.06
2023-03-03T21:42:53.907Z,101757.06
2023-03-03T21:45:23.827Z,101756.44
2023-03-03T21:47:54.853Z,101741.53
2023-03-03T21:50:24.661Z,101743.81
2023-03-03T21:52:56.136Z,101741.91
2023-03-03T21:55:28.111Z,101741.00
2023-03-03T21:57:57.566Z,101745.97
2023-03-03T22:00:27.193Z,101741.78
2023-03-03T22:02:57.647Z,101743.41
2023-03-03T22:05:27.718Z,101733.09
2023-03-03T22:07:57.122Z,101734.88
2023-03-03T22:10:29.223Z,101728.00
2023-03-03T22:12:59.292Z,101721.34
2023-03-03T22:15:33.365Z,101724.94
2023-03-03T22:18:03.027Z,101723.28
2023-03-03T22:20:32.506Z,101720.84
2023-03-03T22:23:01.945Z,101716.78
2023-03-03T22:25:33.912Z,101717.56
2023-03-03T22:28:03.309Z,101710.16
2023-03-03T22:30:32.758Z,101705.03
2023-03-03T22:33:02.140Z,101705.19
2023-03-03T22:35:31.597Z,101705.31
2023-03-03T22:38:01.062Z,101715.53
2023-03-03T22:40:30.536Z,101703.78
2023-03-03T22:43:02.683Z,101705.31
2023-03-03T22:45:32.112Z,101715.16
2023-03-03T22:48:01.618Z,101715.00
2023-03-03T22:50:31.130Z,101710.97
2023-03-03T22:53:00.566Z,101711.97
2023-03-03T22:55:29.991Z,101704.31
2023-03-03T22:58:06.531Z,101707.13
2023-03-03T23:00:38.105Z,101700.50
2023-03-03T23:03:07.832Z,101693.22
2023-03-03T23:05:37.381Z,101703.59
2023-03-03T23:08:08.278Z,101707.16
2023-03-03T23:10:38.235Z,101706.38
2023-03-03T23:13:10.784Z,101708.31
2023-03-03T23:15:40.346Z,101707.66
2023-03-03T23:18:09.870Z,101707.66
2023-03-03T23:20:39.346Z,101710.84
2023-03-03T23:23:09.011Z,101707.81
2023-03-03T23:25:38.444Z,101709.44
2023-03-03T23:28:10.522Z,101701.31
2023-03-03T23:30:40.144Z,101702.06
2023-03-03T23:33:09.574Z,101708.47
2023-03-03T23:35:39.116Z,101698.25
2023-03-03T23:38:08.608Z,101706.94
2023-03-03T23:40:37.991Z,101713.19
2023-03-03T23:43:10.124Z,101705.66
2023-03-03T23:45:39.566Z,101711.78
2023-03-03T23:48:09.475Z,101706.44
2023-03-03T23:50:39.375Z,101702.97
2023-03-03T23:53:09.364Z,101704.63
2023-03-03T23:55:39.007Z,101713.41
2023-03-03T23:58:12.086Z,101701.31
